createdAt,value
2023-05-21T00:02:18.764Z,7.07
2023-05-21T00:04:45.377Z,6.63
2023-05-21T00:07:12.645Z,8.38
2023-05-21T00:09:39.544Z,8.88
2023-05-21T00:12:07.177Z,6.82
2023-05-21T00:14:34.253Z,7.25
2023-05-21T00:17:00.726Z,8.90
2023-05-21T00:19:27.342Z,7.30
2023-05-21T00:21:54.722Z,6.97
2023-05-21T00:24:21.231Z,7.82
2023-05-21T00:26:47.665Z,8.32
2023-05-21T00:29:14.097Z,8.63
2023-05-21T00:31:40.573Z,8.38
2023-05-21T00:34:06.956Z,7.15
2023-05-21T00:36:34.644Z,7.85
2023-05-21T00:39:02.312Z,9.98
2023-05-21T00:41:30.134Z,7.65
2023-05-21T00:43:57.116Z,9.45
2023-05-21T00:46:23.965Z,9.10
2023-05-21T00:48:51.025Z,7.93
2023-05-21T00:51:18.467Z,7.63
2023-05-21T00:53:45.898Z,10.27
2023-05-21T00:56:12.457Z,9.27
2023-05-21T00:58:39.732Z,8.27
2023-05-21T01:01:06.728Z,7.15
2023-05-21T01:03:38.574Z,7.70
2023-05-21T01:06:06.800Z,10.07
2023-05-21T01:08:35.050Z,8.25
2023-05-21T01:11:03.112Z,8.50
2023-05-21T01:13:31.387Z,8.05
2023-05-21T01:15:59.158Z,7.65
2023-05-21T01:18:26.767Z,8.75
2023-05-21T01:20:53.580Z,8.25
2023-05-21T01:23:20.576Z,7.95
2023-05-21T01:25:47.271Z,9.00
2023-05-21T01:28:14.050Z,7.93
2023-05-21T01:30:42.780Z,8.55
2023-05-21T01:33:17.412Z,10.75
2023-05-21T01:35:46.811Z,9.00
2023-05-21T01:38:29.283Z,9.85
2023-05-21T01:41:03.506Z,9.93
2023-05-21T01:43:33.897Z,9.93
2023-05-21T01:46:01.756Z,9.32
2023-05-21T01:48:29.523Z,8.85
2023-05-21T01:51:00.066Z,9.50
2023-05-21T01:53:26.516Z,8.57
2023-05-21T01:55:54.519Z,11.75
2023-05-21T01:58:21.519Z,8.32
2023-05-21T02:00:47.998Z,9.90
2023-05-21T02:03:17.106Z,8.07
2023-05-21T02:05:43.663Z,9.00
2023-05-21T02:08:10.128Z,9.10
2023-05-21T02:10:36.837Z,10.52
2023-05-21T02:13:03.496Z,9.35
2023-05-21T02:15:30.321Z,9.48
2023-05-21T02:17:58.405Z,10.55
2023-05-21T02:20:25.064Z,10.52
2023-05-21T02:22:51.555Z,9.60
2023-05-21T02:25:19.753Z,9.55
2023-05-21T02:27:46.954Z,9.15
2023-05-21T02:30:16.228Z,12.13
2023-05-21T02:32:43.302Z,8.80
2023-05-21T02:35:11.533Z,11.02
2023-05-21T02:37:40.269Z,8.55
2023-05-21T02:40:08.141Z,9.85
2023-05-21T02:42:34.541Z,8.80
2023-05-21T02:45:00.986Z,10.00
2023-05-21T02:47:27.484Z,10.73
2023-05-21T02:49:54.103Z,10.32
2023-05-21T02:52:23.916Z,10.32
2023-05-21T02:54:50.508Z,12.52
2023-05-21T02:57:18.252Z,11.30
2023-05-21T02:59:45.833Z,10.73
2023-05-21T03:02:12.409Z,10.45
2023-05-21T03:04:39.212Z,9.82
2023-05-21T03:07:06.045Z,10.70
2023-05-21T03:09:32.484Z,9.85
2023-05-21T03:11:58.903Z,9.60
2023-05-21T03:14:25.298Z,9.65
2023-05-21T03:16:51.740Z,10.02
2023-05-21T03:19:18.237Z,9.40
2023-05-21T03:21:44.714Z,10.85
2023-05-21T03:24:13.582Z,10.32
2023-05-21T03:26:40.016Z,12.05
2023-05-21T03:29:06.446Z,10.52
2023-05-21T03:31:32.902Z,8.65
2023-05-21T03:33:59.351Z,8.75
2023-05-21T03:36:25.831Z,8.82
2023-05-21T03:38:52.271Z,9.82
2023-05-21T03:41:18.682Z,8.23
2023-05-21T03:43:45.246Z,8.48
2023-05-21T03:46:11.654Z,10.30
2023-05-21T03:48:38.101Z,9.98
2023-05-21T03:51:04.517Z,15.60
2023-05-21T03:53:30.983Z,13.00
2023-05-21T03:55:57.349Z,8.77
2023-05-21T03:58:24.278Z,10.43
2023-05-21T04:00:51.003Z,9.55
2023-05-21T04:03:18.102Z,10.02
2023-05-21T04:05:44.841Z,10.45
2023-05-21T04:08:11.637Z,11.43
2023-05-21T04:10:38.016Z,11.30
2023-05-21T04:13:04.452Z,13.18
2023-05-21T04:15:31.094Z,9.32
2023-05-21T04:17:58.584Z,10.95
2023-05-21T04:20:25.018Z,9.18
2023-05-21T04:22:51.985Z,8.23
2023-05-21T04:25:20.336Z,9.70
2023-05-21T04:27:47.733Z,8.57
2023-05-21T04:32:40.625Z,11.02
2023-05-21T04:35:09.998Z,9.85
2023-05-21T04:37:36.394Z,9.90
2023-05-21T04:40:03.149Z,8.30
2023-05-21T04:42:30.347Z,9.48
2023-05-21T04:44:59.286Z,9.90
2023-05-21T04:47:25.765Z,8.52
2023-05-21T04:49:53.342Z,9.80
2023-05-21T04:52:19.861Z,8.27
2023-05-21T04:54:47.821Z,12.43
2023-05-21T04:57:14.288Z,10.27
2023-05-21T04:59:41.369Z,10.27
2023-05-21T05:02:07.759Z,9.27
2023-05-21T05:04:34.195Z,10.38
2023-05-21T05:07:00.640Z,11.18
2023-05-21T05:09:27.112Z,9.15
2023-05-21T05:11:53.558Z,8.93
2023-05-21T05:14:19.915Z,11.05
2023-05-21T05:16:48.289Z,9.32
2023-05-21T05:19:14.943Z,10.35
2023-05-21T05:21:41.634Z,9.13
2023-05-21T05:24:08.025Z,10.88
2023-05-21T05:26:34.486Z,9.90
2023-05-21T05:29:01.006Z,8.57
2023-05-21T05:31:27.498Z,10.02
2023-05-21T05:33:53.994Z,8.93
2023-05-21T05:36:21.085Z,11.70
2023-05-21T05:38:47.476Z,14.80
2023-05-21T05:41:13.827Z,10.98
2023-05-21T05:43:40.218Z,10.32
2023-05-21T05:46:06.697Z,8.38
2023-05-21T05:48:33.173Z,10.27
2023-05-21T05:50:59.863Z,11.05
2023-05-21T05:53:26.258Z,11.05
2023-05-21T05:55:52.788Z,10.93
2023-05-21T05:58:19.322Z,12.10
2023-05-21T06:00:46.016Z,10.18
2023-05-21T06:03:12.700Z,10.00
2023-05-21T06:05:39.441Z,9.20
2023-05-21T06:08:06.336Z,10.60
2023-05-21T06:10:32.727Z,13.57
2023-05-21T06:12:59.092Z,12.25
2023-05-21T06:15:25.458Z,12.85
2023-05-21T06:17:51.875Z,10.73
2023-05-21T06:20:18.311Z,9.30
2023-05-21T06:22:44.705Z,13.50
2023-05-21T06:25:11.169Z,10.23
2023-05-21T06:27:38.557Z,11.25
2023-05-21T06:30:05.884Z,12.60
2023-05-21T06:34:58.832Z,10.50
2023-05-21T06:37:26.666Z,11.25
2023-05-21T06:39:53.186Z,11.82
2023-05-21T06:42:19.595Z,12.13
2023-05-21T06:44:46.030Z,10.07
2023-05-21T06:47:12.528Z,11.38
2023-05-21T06:49:39.018Z,11.60
2023-05-21T06:52:05.738Z,11.77
2023-05-21T06:54:32.171Z,10.73
2023-05-21T06:56:58.732Z,11.05
2023-05-21T06:59:25.108Z,12.07
2023-05-21T07:01:51.486Z,10.77
2023-05-21T07:04:17.900Z,10.07
2023-05-21T07:06:44.267Z,10.05
2023-05-21T07:09:10.733Z,14.52
2023-05-21T07:11:37.175Z,13.85
2023-05-21T07:14:03.981Z,10.43
2023-05-21T07:16:30.573Z,13.55
2023-05-21T07:18:57.077Z,13.13
2023-05-21T07:21:24.249Z,11.50
2023-05-21T07:23:50.696Z,11.93
2023-05-21T07:26:17.229Z,9.80
2023-05-21T07:28:43.744Z,10.80
2023-05-21T07:31:12.105Z,12.80
2023-05-21T07:33:38.634Z,10.48
2023-05-21T07:36:05.482Z,11.90
2023-05-21T07:38:32.394Z,13.63
2023-05-21T07:40:58.806Z,11.45
2023-05-21T07:43:25.242Z,10.23
2023-05-21T07:45:51.810Z,9.60
2023-05-21T07:48:18.818Z,10.32
2023-05-21T07:50:45.292Z,11.60
2023-05-21T07:53:11.771Z,10.55
2023-05-21T07:55:38.480Z,10.77
2023-05-21T07:58:05.091Z,9.05
2023-05-21T08:00:42.587Z,10.70
2023-05-21T08:03:09.010Z,9.75
2023-05-21T08:05:35.936Z,11.60
2023-05-21T08:10:29.017Z,11.88
2023-05-21T08:12:55.426Z,13.25
2023-05-21T08:15:22.333Z,10.90
2023-05-21T08:17:48.824Z,10.13
2023-05-21T08:20:15.462Z,10.18
2023-05-21T08:22:43.272Z,10.65
2023-05-21T08:25:09.887Z,11.23
2023-05-21T08:27:36.473Z,10.25
2023-05-21T08:30:02.974Z,11.27
2023-05-21T08:32:29.464Z,12.57
2023-05-21T08:34:56.378Z,11.45
2023-05-21T08:37:22.786Z,10.90
2023-05-21T08:39:49.142Z,10.23
2023-05-21T08:42:39.109Z,10.30
2023-05-21T08:45:09.091Z,10.27
2023-05-21T08:47:36.925Z,11.82
2023-05-21T08:50:04.867Z,11.07
2023-05-21T08:52:32.292Z,13.02
2023-05-21T08:54:59.797Z,9.20
2023-05-21T08:57:27.248Z,11.68
2023-05-21T08:59:54.737Z,10.65
2023-05-21T09:02:21.333Z,10.50
2023-05-21T09:04:49.735Z,9.50
2023-05-21T09:07:16.980Z,10.15
2023-05-21T09:09:57.650Z,9.25
2023-05-21T09:12:25.406Z,10.55
2023-05-21T09:14:52.494Z,10.70
2023-05-21T09:17:20.405Z,11.50
2023-05-21T09:20:13.214Z,9.82
2023-05-21T09:22:44.440Z,10.45
2023-05-21T09:25:13.673Z,9.88
2023-05-21T09:27:40.176Z,11.38
2023-05-21T09:30:14.984Z,10.00
2023-05-21T09:32:43.651Z,12.00
2023-05-21T09:35:15.908Z,11.13
2023-05-21T09:37:43.969Z,9.48
2023-05-21T09:40:18.380Z,10.68
2023-05-21T09:42:55.140Z,10.95
2023-05-21T09:45:23.829Z,10.50
2023-05-21T09:47:52.238Z,11.88
2023-05-21T09:50:26.968Z,10.40
2023-05-21T09:52:55.349Z,9.98
2023-05-21T09:55:26.564Z,11.13
2023-05-21T09:57:53.338Z,13.57
2023-05-21T10:02:55.187Z,12.07
2023-05-21T10:05:26.681Z,10.32
2023-05-21T10:07:56.749Z,10.48
2023-05-21T10:10:23.683Z,9.77
2023-05-21T10:12:58.335Z,10.10
2023-05-21T10:15:27.901Z,13.20
2023-05-21T10:17:55.881Z,11.05
2023-05-21T10:20:22.600Z,11.82
2023-05-21T10:22:50.549Z,9.80
2023-05-21T10:25:17.359Z,9.50
2023-05-21T10:27:44.887Z,11.90
2023-05-21T10:30:11.741Z,10.00
2023-05-21T10:32:40.493Z,9.52
2023-05-21T10:35:08.832Z,11.45
2023-05-21T10:37:35.606Z,12.23
2023-05-21T10:42:31.935Z,12.23
2023-05-21T10:45:04.036Z,16.55
2023-05-21T10:47:54.385Z,10.35
2023-05-21T10:50:57.577Z,11.07
2023-05-21T10:53:23.963Z,9.52
2023-05-21T10:56:06.653Z,9.20
2023-05-21T10:59:00.841Z,12.95
2023-05-21T11:01:34.043Z,12.32
2023-05-21T11:06:27.940Z,12.85
2023-05-21T11:08:55.530Z,15.20
2023-05-21T11:11:46.017Z,9.85
2023-05-21T11:14:36.696Z,12.98
2023-05-21T11:17:16.328Z,8.98
2023-05-21T11:19:47.005Z,11.98
2023-05-21T11:22:27.092Z,10.18
2023-05-21T11:24:55.479Z,11.95
2023-05-21T11:27:39.651Z,14.68
2023-05-21T11:30:10.452Z,10.75
2023-05-21T11:33:12.211Z,13.88
2023-05-21T11:35:44.951Z,9.82
2023-05-21T11:38:11.485Z,14.27
2023-05-21T11:40:38.375Z,13.75
2023-05-21T11:43:04.919Z,12.13
2023-05-21T11:45:32.859Z,9.90
2023-05-21T11:48:00.403Z,12.20
2023-05-21T11:50:28.317Z,14.23
2023-05-21T11:52:54.765Z,12.13
2023-05-21T11:55:22.806Z,10.43
2023-05-21T11:57:53.649Z,16.35
2023-05-21T12:00:20.136Z,11.23
2023-05-21T12:02:50.025Z,12.13
2023-05-21T12:05:16.968Z,11.07
2023-05-21T12:07:48.599Z,11.15
2023-05-21T12:10:15.078Z,14.27
2023-05-21T12:12:53.976Z,12.02
2023-05-21T12:15:22.719Z,12.80
2023-05-21T12:17:52.675Z,12.07
2023-05-21T12:20:19.971Z,15.38
2023-05-21T12:22:49.253Z,12.70
2023-05-21T12:25:19.826Z,11.75
2023-05-21T12:27:46.723Z,10.85
2023-05-21T12:30:13.624Z,16.73
2023-05-21T12:32:45.774Z,12.20
2023-05-21T12:35:23.485Z,13.10
2023-05-21T12:37:51.065Z,11.65
2023-05-21T12:40:18.109Z,13.15
2023-05-21T12:42:44.701Z,11.85
2023-05-21T12:45:11.555Z,13.48
2023-05-21T12:47:38.433Z,14.00
2023-05-21T12:50:08.505Z,12.18
2023-05-21T12:52:35.018Z,13.48
2023-05-21T12:57:35.793Z,12.70
2023-05-21T13:00:04.349Z,13.05
2023-05-21T13:02:38.663Z,15.43
2023-05-21T13:05:26.381Z,12.30
2023-05-21T13:07:52.735Z,14.25
2023-05-21T13:10:19.223Z,12.15
2023-05-21T13:12:46.280Z,12.60
2023-05-21T13:15:12.950Z,14.40
2023-05-21T13:20:13.143Z,13.98
2023-05-21T13:22:47.302Z,15.18
2023-05-21T13:25:16.394Z,13.13
2023-05-21T13:27:43.353Z,13.25
2023-05-21T13:30:11.732Z,14.02
2023-05-21T13:32:40.079Z,12.95
2023-05-21T13:35:07.160Z,16.50
2023-05-21T13:37:36.158Z,15.35
2023-05-21T13:40:10.338Z,13.15
2023-05-21T13:42:40.052Z,12.05
2023-05-21T13:45:08.928Z,12.18
2023-05-21T13:47:37.606Z,14.27
2023-05-21T13:50:07.149Z,13.32
2023-05-21T13:52:33.628Z,13.88
2023-05-21T13:55:00.186Z,13.23
2023-05-21T13:59:58.247Z,12.95
2023-05-21T14:02:24.892Z,13.48
2023-05-21T14:04:51.590Z,12.70
2023-05-21T14:07:18.099Z,13.07
2023-05-21T14:12:10.841Z,12.65
2023-05-21T14:14:37.816Z,12.45
2023-05-21T14:17:04.667Z,13.77
2023-05-21T14:19:31.691Z,12.00
2023-05-21T14:21:59.774Z,15.05
2023-05-21T14:24:26.207Z,15.63
2023-05-21T14:29:18.960Z,12.95
2023-05-21T14:31:46.286Z,11.32
2023-05-21T14:34:12.741Z,13.35
2023-05-21T14:36:39.288Z,12.85
2023-05-21T14:43:58.563Z,13.85
2023-05-21T14:48:51.756Z,12.60
2023-05-21T14:53:45.566Z,12.02
2023-05-21T14:56:11.998Z,14.45
2023-05-21T15:01:05.100Z,12.40
2023-05-21T15:03:31.664Z,13.38
2023-05-21T15:05:58.604Z,14.48
2023-05-21T15:08:25.428Z,14.20
2023-05-21T15:10:52.093Z,8.98
2023-05-21T15:13:18.834Z,12.18
2023-05-21T15:15:45.458Z,10.70
2023-05-21T15:18:11.951Z,8.88
2023-05-21T15:23:16.011Z,11.10
2023-05-21T15:25:42.990Z,10.68
2023-05-21T15:28:09.357Z,14.35
2023-05-21T15:30:35.732Z,11.52
2023-05-21T15:33:02.095Z,11.13
2023-05-21T15:35:28.599Z,10.80
2023-05-21T15:40:21.538Z,10.73
2023-05-21T15:42:47.975Z,10.32
2023-05-21T15:45:14.514Z,11.05
2023-05-21T15:47:42.689Z,10.50
2023-05-21T15:50:10.294Z,13.88
2023-05-21T15:52:37.060Z,14.32
2023-05-21T15:57:30.143Z,10.82
2023-05-21T15:59:56.570Z,13.20
2023-05-21T16:02:23.043Z,12.70
2023-05-21T16:04:51.635Z,14.27
2023-05-21T16:07:18.706Z,11.35
2023-05-21T16:09:45.147Z,12.23
2023-05-21T16:12:11.604Z,12.90
2023-05-21T16:14:37.987Z,9.85
2023-05-21T16:17:04.760Z,13.57
2023-05-21T16:21:58.045Z,10.77
2023-05-21T16:24:24.510Z,10.82
2023-05-21T16:26:50.913Z,11.50
2023-05-21T16:29:17.328Z,10.35
2023-05-21T16:31:43.868Z,11.43
2023-05-21T16:34:10.433Z,13.00
2023-05-21T16:36:38.218Z,12.45
2023-05-21T16:39:04.616Z,11.00
2023-05-21T16:41:31.137Z,10.50
2023-05-21T16:43:57.519Z,17.65
2023-05-21T16:46:24.005Z,12.55
2023-05-21T16:48:50.597Z,11.75
2023-05-21T16:51:17.009Z,11.98
2023-05-21T16:53:43.436Z,13.13
2023-05-21T16:56:09.871Z,12.90
2023-05-21T16:58:36.346Z,13.63
2023-05-21T17:01:03.602Z,12.13
2023-05-21T17:03:32.361Z,12.60
2023-05-21T17:05:59.039Z,14.70
2023-05-21T17:08:25.420Z,14.73
2023-05-21T17:10:51.904Z,14.15
2023-05-21T17:13:22.702Z,12.43
2023-05-21T17:15:53.110Z,10.75
2023-05-21T17:18:19.646Z,10.85
2023-05-21T17:20:46.119Z,12.80
2023-05-21T17:23:12.704Z,15.02
2023-05-21T17:25:39.893Z,14.85
2023-05-21T17:28:06.706Z,14.77
2023-05-21T17:30:33.439Z,13.48
2023-05-21T17:33:02.075Z,16.02
2023-05-21T17:35:28.573Z,13.88
2023-05-21T17:37:55.210Z,16.98
2023-05-21T17:40:24.208Z,14.10
2023-05-21T17:42:51.731Z,17.42
2023-05-21T17:45:18.502Z,14.43
2023-05-21T17:47:44.970Z,16.20
2023-05-21T17:50:11.546Z,22.13
2023-05-21T17:52:38.113Z,16.60
2023-05-21T17:55:05.134Z,16.08
2023-05-21T17:57:31.562Z,18.85
2023-05-21T17:59:58.065Z,13.75
2023-05-21T18:02:25.320Z,17.02
2023-05-21T18:04:51.693Z,18.88
2023-05-21T18:07:18.048Z,19.20
2023-05-21T18:09:44.463Z,17.90
2023-05-21T18:12:11.062Z,17.70
2023-05-21T18:14:37.501Z,17.60
2023-05-21T18:17:04.171Z,16.20
2023-05-21T18:19:33.679Z,18.00
2023-05-21T18:22:00.176Z,16.70
2023-05-21T18:24:26.609Z,19.33
2023-05-21T18:26:53.026Z,20.98
2023-05-21T18:29:19.466Z,20.15
2023-05-21T18:31:46.040Z,16.70
2023-05-21T18:34:12.666Z,20.13
2023-05-21T18:36:39.993Z,17.35
2023-05-21T18:39:09.764Z,18.55
2023-05-21T18:41:37.178Z,21.90
2023-05-21T18:44:04.038Z,18.08
2023-05-21T18:46:31.583Z,17.95
2023-05-21T18:49:00.060Z,18.17
2023-05-21T18:51:26.564Z,21.20
2023-05-21T18:53:53.195Z,22.67
2023-05-21T18:56:19.632Z,20.13
2023-05-21T18:58:46.246Z,18.13
2023-05-21T19:01:12.761Z,19.08
2023-05-21T19:03:39.357Z,20.60
2023-05-21T19:06:05.838Z,20.67
2023-05-21T19:08:32.242Z,21.63
2023-05-21T19:10:58.610Z,23.02
2023-05-21T19:13:26.209Z,22.17
2023-05-21T19:15:52.685Z,18.00
2023-05-21T19:18:19.169Z,22.83
2023-05-21T19:20:45.554Z,24.08
2023-05-21T19:23:12.084Z,19.23
2023-05-21T19:25:38.577Z,21.23
2023-05-21T19:28:05.362Z,19.85
2023-05-21T19:30:34.793Z,21.08
2023-05-21T19:33:01.609Z,23.33
2023-05-21T19:35:28.151Z,20.90
2023-05-21T19:37:58.625Z,25.60
2023-05-21T19:40:25.373Z,23.10
2023-05-21T19:42:51.745Z,21.90
2023-05-21T19:45:18.146Z,21.70
2023-05-21T19:47:44.604Z,21.63
2023-05-21T19:50:11.688Z,22.45
2023-05-21T19:52:39.083Z,24.67
2023-05-21T19:55:08.531Z,23.30
2023-05-21T19:57:34.886Z,22.85
2023-05-21T20:00:01.318Z,23.63
2023-05-21T20:02:30.568Z,22.08
2023-05-21T20:04:58.693Z,21.92
2023-05-21T20:07:25.122Z,21.42
2023-05-21T20:09:52.239Z,21.88
2023-05-21T20:12:18.770Z,20.83
2023-05-21T20:14:49.497Z,23.35
2023-05-21T20:17:18.758Z,23.90
2023-05-21T20:19:48.034Z,19.55
2023-05-21T20:22:17.764Z,23.77
2023-05-21T20:24:44.163Z,20.45
2023-05-21T20:27:10.525Z,24.98
2023-05-21T20:29:36.898Z,20.20
2023-05-21T20:32:03.406Z,22.83
2023-05-21T20:34:29.854Z,20.45
2023-05-21T20:36:58.174Z,21.85
2023-05-21T20:39:27.175Z,21.75
2023-05-21T20:41:54.915Z,24.15
2023-05-21T20:44:22.410Z,22.58
2023-05-21T20:46:49.082Z,20.35
2023-05-21T20:49:15.642Z,24.48
2023-05-21T20:51:42.355Z,21.55
2023-05-21T20:54:09.829Z,21.88
2023-05-21T20:56:42.118Z,22.23
2023-05-21T20:59:10.892Z,23.35
2023-05-21T21:01:38.087Z,22.30
2023-05-21T21:04:04.916Z,24.50
2023-05-21T21:06:31.793Z,21.17
2023-05-21T21:08:58.397Z,19.73
2023-05-21T21:11:24.941Z,24.48
2023-05-21T21:13:51.848Z,22.40
2023-05-21T21:16:18.472Z,24.45
2023-05-21T21:18:46.710Z,21.80
2023-05-21T21:21:13.172Z,23.95
2023-05-21T21:23:39.612Z,20.13
2023-05-21T21:26:06.123Z,25.88
2023-05-21T21:28:32.468Z,21.77
2023-05-21T21:30:58.877Z,27.50
2023-05-21T21:33:26.603Z,24.45
2023-05-21T21:35:53.193Z,21.80
2023-05-21T21:38:19.615Z,26.20
2023-05-21T21:40:46.051Z,21.00
2023-05-21T21:43:12.496Z,24.23
2023-05-21T21:45:38.941Z,24.60
2023-05-21T21:48:05.757Z,24.92
2023-05-21T21:50:32.197Z,22.88
2023-05-21T21:52:59.801Z,25.52
2023-05-21T21:55:26.393Z,24.25
2023-05-21T21:57:52.806Z,23.13
2023-05-21T22:00:19.506Z,25.90
2023-05-21T22:02:46.661Z,24.83
2023-05-21T22:05:14.615Z,26.85
2023-05-21T22:07:42.537Z,24.33
2023-05-21T22:10:09.402Z,26.00
2023-05-21T22:12:35.957Z,25.50
2023-05-21T22:15:05.220Z,24.92
2023-05-21T22:17:32.681Z,24.73
2023-05-21T22:22:25.962Z,26.38
2023-05-21T22:24:53.155Z,26.15
2023-05-21T22:27:20.588Z,24.08
2023-05-21T22:29:47.027Z,29.10
2023-05-21T22:32:13.827Z,22.67
2023-05-21T22:34:41.752Z,25.13
2023-05-21T22:37:08.124Z,26.20
2023-05-21T22:39:34.518Z,29.42
2023-05-21T22:42:01.448Z,24.25
2023-05-21T22:44:27.875Z,26.33
2023-05-21T22:46:56.283Z,24.67
2023-05-21T22:49:22.821Z,25.52
2023-05-21T22:51:49.468Z,27.05
2023-05-21T22:54:15.973Z,27.15
2023-05-21T22:56:42.390Z,26.02
2023-05-21T22:59:08.779Z,26.00
2023-05-21T23:01:36.898Z,31.67
2023-05-21T23:04:03.774Z,31.02
2023-05-21T23:06:30.597Z,27.10
2023-05-21T23:08:57.061Z,23.63
2023-05-21T23:11:23.551Z,26.08
2023-05-21T23:13:49.954Z,30.15
2023-05-21T23:16:16.877Z,31.65
2023-05-21T23:18:43.318Z,32.53
2023-05-21T23:21:09.943Z,29.80
2023-05-21T23:23:36.421Z,27.60
2023-05-21T23:26:02.856Z,27.15
2023-05-21T23:28:29.316Z,34.80
2023-05-21T23:30:55.908Z,27.08
2023-05-21T23:33:22.406Z,27.85
2023-05-21T23:35:48.780Z,29.48
2023-05-21T23:38:15.300Z,29.13
2023-05-21T23:40:42.171Z,30.58
2023-05-21T23:43:08.645Z,30.75
2023-05-21T23:45:35.053Z,27.08
2023-05-21T23:48:01.542Z,29.58
2023-05-21T23:50:27.959Z,33.10
2023-05-21T23:52:54.469Z,34.05
2023-05-21T23:55:20.919Z,31.23
2023-05-21T23:57:47.298Z,30.92
